Terminal Aerodrome Forecast
Issued by NWS Omaha/Valley, NE

Home | Current Version | Previous Version | Text Only | Print | Product List | Glossary On
Versions: 1 2 3 4 5 6 7 8 9 10 11 12 13 14 15 16 17 18 19 20 21 22 23 24 25 26
000
FTUS43 KOAX 222320
TAFOMA
TAF
KOMA 222320Z 2300/2324 28012G22KT 5SM -SHRA OVC080
      TEMPO 2300/2303 3SM -RA BKN035
     FM230300 21010KT P6SM OVC100
     FM231100 VRB05KT 4SM BR SCT250
     FM231400 24006KT P6SM SCT250=

USA.gov is the U.S. government's official web portal to all federal, state and local government web resources and services.